CheckWX is a tool to help pilots better visualize weather data.  It is not intended as a substitute for an official pre-flight weather briefing.

07:36:12 UTC

LIRM TAF
Grazzanise Airport
Caserta, Italy
TAF LIRM 190500Z 1906/1915 VRB03KT 9999 FEW025 BECMG 1910/1912 26012KT

Jun-19@
06:00 UTC

Jun-19 @ 06:00 UTC

Jun-19@
10:00 UTC

Jun-19 @ 10:00 UTC

TAF LIRM 190500Z 1906/1915 VRB03KT 9999 FEW025
Wind
  • Variable at 3 KTS
Cloud Levels
  • Few at 2,500' AGL

Jun-19@
10:00 UTC

Jun-19 @ 10:00 UTC

Jun-19@
15:00 UTC

Jun-19 @ 15:00 UTC

BECMG 1910/1912 26012KT

Becoming

Becoming Conditions expected by Wed, Jun 19, 2019 @ 12:00 UTC

Wind
  • 260° at 12 KTS
Cloud Levels
  • Few at 2,500' AGL